Time;durP1;ratioP1;P1;durP2;ratioP2;P2;SDS_P1;SDS_P2;PMS_P1;PMS_P2;Temp;Humidity;BMP_temperature;BMP_pressure;BME280_temperature;BME280_humidity;BME280_pressure;Samples;Min_cycle;Max_cycle;Signal;HPM_P1;HPM_P2
2021/12/28 00:02:01;;;;;;;12.98;8.57;;;7.70;99.90;;;;;;5051607;28;20178;-87
2021/12/28 00:04:26;;;;;;;10.30;7.55;;;7.70;99.90;;;;;;5086195;28;20037;-87
2021/12/28 00:06:52;;;;;;;9.82;7.15;;;7.70;99.90;;;;;;5051745;28;20029;-87
2021/12/28 00:09:17;;;;;;;9.50;6.63;;;7.70;99.90;;;;;;5051834;28;20029;-87
2021/12/28 00:11:44;;;;;;;8.43;5.85;;;7.70;99.90;;;;;;5051740;28;20060;-86
2021/12/28 00:14:09;;;;;;;14.82;7.20;;;7.70;99.90;;;;;;5051511;28;20028;-86
2021/12/28 00:17:58;;;;;;;12.07;7.15;;;7.70;99.90;;;;;;5068386;28;20043;-86
2021/12/28 00:19:20;;;;;;;11.00;7.53;;;7.70;99.90;;;;;;5067962;28;20125;-87
2021/12/28 00:21:46;;;;;;;12.75;7.63;;;7.70;99.90;;;;;;5051426;28;20032;-87
2021/12/28 00:24:12;;;;;;;11.30;6.60;;;7.70;99.90;;;;;;5051697;28;20028;-87
2021/12/28 00:26:37;;;;;;;10.68;6.90;;;7.70;99.90;;;;;;5067915;28;20037;-87
2021/12/28 00:29:03;;;;;;;12.90;6.13;;;7.60;99.90;;;;;;5051369;28;20033;-86
2021/12/28 00:31:29;;;;;;;14.70;6.97;;;7.60;99.90;;;;;;5051095;28;20033;-86
2021/12/28 00:33:57;;;;;;;9.52;6.32;;;7.50;99.90;;;;;;5051578;28;20025;-88
2021/12/28 00:36:23;;;;;;;12.73;6.85;;;7.50;99.90;;;;;;5051629;28;20036;-86
2021/12/28 00:38:49;;;;;;;9.95;6.25;;;7.50;99.90;;;;;;5051337;28;20038;-86
2021/12/28 00:41:15;;;;;;;14.73;6.25;;;7.40;99.90;;;;;;5051155;28;20502;-86
2021/12/28 00:43:42;;;;;;;10.73;5.97;;;7.50;99.90;;;;;;5051368;28;20063;-87
2021/12/28 00:46:08;;;;;;;6.95;4.95;;;7.40;99.90;;;;;;5051215;28;20307;-86
2021/12/28 00:48:34;;;;;;;10.18;6.15;;;7.40;99.90;;;;;;5067950;28;20039;-86
2021/12/28 00:51:00;;;;;;;8.82;6.20;;;7.30;99.90;;;;;;5067995;28;20549;-86
2021/12/28 00:53:26;;;;;;;8.98;4.90;;;7.30;99.90;;;;;;5051132;28;20096;-86
2021/12/28 00:55:52;;;;;;;7.97;4.65;;;7.20;99.90;;;;;;5051374;28;20028;-84
2021/12/28 00:58:18;;;;;;;9.00;5.03;;;7.20;99.90;;;;;;5051299;28;20064;-86
2021/12/28 01:00:45;;;;;;;8.90;5.65;;;7.10;99.90;;;;;;5051135;28;20059;-86
2021/12/28 01:03:11;;;;;;;10.75;4.53;;;7.10;99.90;;;;;;5088083;28;20029;-86
2021/12/28 01:05:38;;;;;;;10.27;5.03;;;7.10;99.90;;;;;;5054956;28;20066;-86
2021/12/28 01:08:05;;;;;;;9.23;4.55;;;7.10;99.90;;;;;;5054817;28;20060;-85
2021/12/28 01:10:34;;;;;;;9.50;5.32;;;7.00;99.90;;;;;;5055115;28;20036;-86
2021/12/28 01:13:00;;;;;;;11.90;5.50;;;6.90;99.90;;;;;;5054890;28;20020;-86
2021/12/28 01:15:28;;;;;;;10.95;5.25;;;6.90;99.90;;;;;;5055106;28;20032;-87
2021/12/28 01:17:54;;;;;;;12.15;4.50;;;6.80;99.90;;;;;;5055011;28;20035;-86
2021/12/28 01:20:20;;;;;;;8.88;4.72;;;6.90;99.90;;;;;;5054758;28;20032;-86
2021/12/28 01:22:46;;;;;;;10.02;5.65;;;6.80;99.90;;;;;;5054817;28;20038;-86
2021/12/28 01:25:13;;;;;;;8.20;4.05;;;6.70;99.90;;;;;;5071480;28;20040;-86
2021/12/28 01:27:39;;;;;;;10.60;4.25;;;6.70;99.90;;;;;;5054777;28;20393;-86
2021/12/28 01:30:07;;;;;;;10.35;5.18;;;6.70;99.90;;;;;;5046313;28;20050;-86
2021/12/28 01:32:34;;;;;;;8.38;4.43;;;6.60;99.90;;;;;;5053959;28;20178;-86
2021/12/28 01:35:00;;;;;;;9.27;4.82;;;6.60;99.90;;;;;;5054503;28;20140;-85
2021/12/28 01:37:26;;;;;;;9.23;5.03;;;6.60;99.90;;;;;;5071176;28;20033;-86
2021/12/28 01:39:52;;;;;;;8.77;4.20;;;6.70;99.90;;;;;;5052766;28;20052;-86
2021/12/28 01:42:17;;;;;;;10.18;4.45;;;6.60;99.90;;;;;;5054200;28;20029;-86
2021/12/28 01:44:43;;;;;;;8.48;4.65;;;6.60;99.90;;;;;;5070963;28;20123;-86
2021/12/28 01:47:10;;;;;;;6.80;4.28;;;6.60;99.90;;;;;;5054628;28;20028;-86
2021/12/28 01:49:35;;;;;;;8.73;4.63;;;6.60;99.90;;;;;;5070811;28;20043;-85
2021/12/28 01:52:01;;;;;;;10.30;4.05;;;6.50;99.90;;;;;;5070727;28;20048;-86
2021/12/28 01:54:27;;;;;;;10.68;5.90;;;6.60;99.90;;;;;;5070807;28;20035;-86
2021/12/28 01:56:52;;;;;;;11.20;4.72;;;6.60;99.90;;;;;;5070765;28;20464;-86
2021/12/28 01:59:20;;;;;;;7.10;3.60;;;6.60;99.90;;;;;;5088536;28;20031;-87
2021/12/28 02:01:47;;;;;;;11.32;3.90;;;6.60;99.90;;;;;;5070695;28;20133;-86
2021/12/28 02:04:28;;;;;;;8.45;3.80;;;6.60;99.90;;;;;;5053840;28;20036;-86
2021/12/28 02:06:55;;;;;;;;;;;6.70;99.90;;;;;;5054358;28;20039;-85
2021/12/28 02:09:21;;;;;;;7.40;2.75;;;6.60;99.90;;;;;;5053985;28;19930;-87
2021/12/28 02:11:48;;;;;;;7.53;3.17;;;6.60;99.90;;;;;;5055459;28;20037;-86
2021/12/28 02:14:14;;;;;;;7.20;3.40;;;6.60;99.90;;;;;;5054587;28;20393;-86
2021/12/28 02:16:43;;;;;;;6.20;2.58;;;6.60;99.90;;;;;;5055159;28;20033;-86
2021/12/28 02:19:10;;;;;;;5.40;3.30;;;6.60;99.90;;;;;;5053529;28;20032;-86
2021/12/28 02:21:36;;;;;;;8.00;3.70;;;6.50;99.90;;;;;;5053370;28;20032;-86
2021/12/28 02:24:05;;;;;;;6.85;1.88;;;6.60;99.90;;;;;;5053663;28;20039;-86
2021/12/28 02:26:31;;;;;;;7.80;3.05;;;6.60;99.90;;;;;;5053329;28;20100;-86
2021/12/28 02:28:57;;;;;;;8.55;3.42;;;6.60;99.90;;;;;;5053370;28;20050;-85
2021/12/28 02:31:23;;;;;;;7.47;3.30;;;6.70;99.90;;;;;;5056218;22;20056;-86
2021/12/28 02:33:49;;;;;;;7.32;3.33;;;6.60;99.90;;;;;;5050536;28;20033;-86
2021/12/28 02:36:16;;;;;;;8.07;3.33;;;6.60;99.90;;;;;;5050294;28;20036;-85
2021/12/28 02:38:44;;;;;;;10.98;4.72;;;6.60;99.90;;;;;;5050320;28;20032;-86
2021/12/28 02:41:10;;;;;;;9.27;3.50;;;6.70;99.90;;;;;;5033788;28;20030;-85
2021/12/28 02:43:37;;;;;;;7.00;3.17;;;6.70;99.90;;;;;;5033631;28;20037;-86
2021/12/28 02:46:05;;;;;;;8.45;2.78;;;6.70;99.90;;;;;;5033600;28;20033;-86
2021/12/28 02:48:32;;;;;;;9.23;2.55;;;6.70;99.90;;;;;;5050238;28;20021;-86
2021/12/28 02:51:16;;;;;;;7.30;3.20;;;6.70;99.90;;;;;;5050101;28;20056;-86
2021/12/28 02:53:44;;;;;;;6.07;2.50;;;6.80;99.90;;;;;;5050011;28;20117;-85
2021/12/28 02:56:12;;;;;;;6.72;3.60;;;6.70;99.90;;;;;;5050145;28;20075;-86
2021/12/28 02:58:46;;;;;;;6.95;3.10;;;6.70;99.90;;;;;;5049947;28;20032;-86
2021/12/28 03:01:19;;;;;;;8.55;3.00;;;6.70;99.90;;;;;;5033428;28;20036;-85
2021/12/28 03:03:47;;;;;;;6.00;2.55;;;6.70;99.90;;;;;;5033320;28;20037;-85
2021/12/28 03:06:16;;;;;;;8.35;3.17;;;6.70;99.90;;;;;;5049644;28;20172;-86
2021/12/28 03:08:49;;;;;;;8.35;4.10;;;6.60;99.90;;;;;;5032967;28;20033;-86
2021/12/28 03:11:15;;;;;;;7.80;3.28;;;6.60;99.90;;;;;;5049335;28;20048;-85
2021/12/28 03:13:47;;;;;;;9.30;2.65;;;6.70;99.90;;;;;;5032962;28;20033;-84
2021/12/28 03:16:14;;;;;;;9.07;2.53;;;6.60;99.90;;;;;;5033127;28;20070;-85
2021/12/28 03:18:40;;;;;;;6.80;3.22;;;6.60;99.90;;;;;;5032694;28;20123;-85
2021/12/28 03:21:07;;;;;;;6.72;2.13;;;6.50;99.90;;;;;;5032653;28;20037;-86
2021/12/28 03:23:34;;;;;;;6.32;2.78;;;6.50;99.90;;;;;;5032770;28;20055;-86
2021/12/28 03:26:00;;;;;;;6.03;2.03;;;6.50;99.90;;;;;;5064693;28;20079;-86
2021/12/28 03:28:30;;;;;;;7.07;2.47;;;6.40;99.90;;;;;;5049187;28;20037;-86
2021/12/28 03:31:00;;;;;;;7.53;3.33;;;6.50;99.90;;;;;;5048900;28;20049;-86
2021/12/28 03:33:26;;;;;;;;;;;6.40;99.90;;;;;;5049447;28;20488;-86
2021/12/28 03:35:52;;;;;;;5.13;2.20;;;6.30;99.90;;;;;;5065650;28;19959;-86
2021/12/28 03:38:18;;;;;;;9.30;3.15;;;6.40;99.90;;;;;;5032221;28;20087;-86
2021/12/28 03:40:45;;;;;;;9.43;3.08;;;6.50;99.90;;;;;;5065302;28;20445;-86
2021/12/28 03:43:10;;;;;;;6.40;3.00;;;6.50;99.90;;;;;;5048672;28;20106;-86
2021/12/28 03:45:36;;;;;;;8.50;2.63;;;6.40;99.90;;;;;;5048753;28;20037;-86
2021/12/28 03:48:04;;;;;;;6.57;2.70;;;6.40;99.90;;;;;;5048501;28;20059;-86
2021/12/28 03:50:31;;;;;;;7.28;2.55;;;6.50;99.90;;;;;;5081761;28;20559;-87
2021/12/28 03:52:57;;;;;;;10.52;3.25;;;6.50;99.90;;;;;;5048447;28;20056;-86
2021/12/28 03:55:25;;;;;;;7.93;2.10;;;6.50;99.90;;;;;;5048439;28;20036;-85
2021/12/28 03:57:52;;;;;;;9.45;3.03;;;6.50;99.90;;;;;;5048628;28;20074;-88
2021/12/28 04:00:21;;;;;;;5.95;2.88;;;6.50;99.90;;;;;;5031880;28;20033;-85
2021/12/28 04:02:47;;;;;;;7.97;3.40;;;6.50;99.90;;;;;;5048439;28;20029;-86
2021/12/28 04:05:14;;;;;;;8.00;2.33;;;6.50;99.90;;;;;;5064975;28;20834;-86
2021/12/28 04:07:40;;;;;;;7.38;1.95;;;6.60;99.90;;;;;;5032065;28;20039;-86
2021/12/28 04:10:09;;;;;;;8.25;2.35;;;6.50;99.90;;;;;;5031806;28;20021;-86
2021/12/28 04:12:35;;;;;;;7.82;2.58;;;6.60;99.90;;;;;;5065003;28;20033;-86
2021/12/28 04:15:01;;;;;;;8.55;2.85;;;6.60;99.90;;;;;;5066430;28;20519;-86
2021/12/28 04:17:28;;;;;;;5.50;2.22;;;6.60;99.90;;;;;;5032011;28;20535;-85
2021/12/28 04:19:54;;;;;;;6.47;1.95;;;6.60;99.90;;;;;;5048212;28;20028;-86
2021/12/28 04:22:21;;;;;;;6.95;2.17;;;6.60;99.90;;;;;;5031805;28;20033;-86
2021/12/28 04:24:47;;;;;;;9.23;2.03;;;6.70;99.90;;;;;;5049255;28;20074;-86
2021/12/28 04:27:12;;;;;;;10.70;2.55;;;6.70;99.90;;;;;;5082044;28;20060;-86
2021/12/28 04:29:38;;;;;;;9.98;2.13;;;6.70;99.90;;;;;;5073270;22;20032;-85
2021/12/28 04:32:05;;;;;;;7.18;2.55;;;6.70;99.90;;;;;;5048363;28;20048;-86
2021/12/28 04:34:30;;;;;;;10.55;2.63;;;6.80;99.90;;;;;;5031962;28;20040;-85
2021/12/28 04:36:56;;;;;;;7.15;2.05;;;6.70;99.90;;;;;;5031522;28;20029;-85
2021/12/28 04:39:22;;;;;;;8.65;2.83;;;6.80;99.90;;;;;;5056758;28;20531;-86
2021/12/28 04:41:47;;;;;;;8.15;2.15;;;6.80;99.90;;;;;;5047979;28;20036;-85
2021/12/28 04:44:13;;;;;;;7.68;2.35;;;6.70;99.90;;;;;;5065057;28;20157;-85
2021/12/28 04:46:40;;;;;;;9.57;2.50;;;6.80;99.90;;;;;;5064957;28;20033;-86
2021/12/28 04:49:06;;;;;;;10.50;1.88;;;6.80;99.90;;;;;;5048334;28;20033;-85
2021/12/28 04:51:32;;;;;;;7.75;1.98;;;6.80;99.90;;;;;;5048049;28;20052;-85
2021/12/28 04:54:05;;;;;;;8.23;1.80;;;6.80;99.90;;;;;;5048058;28;20055;-85
2021/12/28 04:56:31;;;;;;;7.03;1.92;;;6.80;99.90;;;;;;5048196;28;20461;-85
2021/12/28 04:58:56;;;;;;;8.73;2.22;;;6.90;99.90;;;;;;5048195;28;20037;-86
2021/12/28 05:01:22;;;;;;;4.80;1.75;;;7.00;99.90;;;;;;5048031;28;20056;-86
2021/12/28 05:03:48;;;;;;;8.63;1.83;;;7.00;99.90;;;;;;5048260;28;20029;-86
2021/12/28 05:06:14;;;;;;;8.68;1.67;;;7.00;99.90;;;;;;5048001;28;20044;-86
2021/12/28 05:08:41;;;;;;;7.53;1.50;;;7.00;99.90;;;;;;5064548;28;20039;-83
2021/12/28 05:11:06;;;;;;;5.70;1.48;;;7.00;99.90;;;;;;5064179;28;20037;-85
2021/12/28 05:13:32;;;;;;;8.52;1.42;;;7.00;99.90;;;;;;5047887;28;20086;-85
2021/12/28 05:15:57;;;;;;;10.73;1.25;;;7.10;99.90;;;;;;5064376;28;20037;-84
2021/12/28 05:18:23;;;;;;;6.93;1.55;;;7.20;99.90;;;;;;5064376;28;20052;-86
2021/12/28 05:20:49;;;;;;;7.38;1.25;;;7.10;99.90;;;;;;5047742;28;20029;-86
2021/12/28 05:23:14;;;;;;;8.55;1.10;;;7.20;99.90;;;;;;5064393;28;20037;-84
2021/12/28 05:25:40;;;;;;;7.20;1.25;;;7.10;99.90;;;;;;5065372;28;20071;-83
2021/12/28 05:28:06;;;;;;;10.25;1.88;;;7.20;99.90;;;;;;5065341;28;20025;-82
2021/12/28 05:30:33;;;;;;;10.98;1.75;;;7.20;99.90;;;;;;5047116;28;20048;-86
2021/12/28 05:32:59;;;;;;;5.03;1.20;;;7.20;99.90;;;;;;5047289;28;20029;-86
2021/12/28 05:35:25;;;;;;;7.85;1.08;;;7.20;99.90;;;;;;5047560;28;20033;-85
2021/12/28 05:37:51;;;;;;;9.30;1.65;;;7.30;99.90;;;;;;5047473;28;20086;-86
2021/12/28 05:40:17;;;;;;;5.72;0.98;;;7.20;99.90;;;;;;5047964;28;20044;-84
2021/12/28 05:42:43;;;;;;;11.88;1.00;;;7.30;99.90;;;;;;5030822;28;20119;-86
2021/12/28 05:45:10;;;;;;;9.35;1.13;;;7.20;99.90;;;;;;5030863;28;20037;-86
2021/12/28 05:47:36;;;;;;;5.57;0.95;;;7.30;99.90;;;;;;5030942;28;20037;-87
2021/12/28 05:50:06;;;;;;;8.65;0.90;;;7.30;99.90;;;;;;5032958;28;20032;-86
2021/12/28 05:52:31;;;;;;;4.53;0.80;;;7.30;99.90;;;;;;5034394;28;20033;-87
2021/12/28 05:54:57;;;;;;;7.45;0.90;;;7.30;99.90;;;;;;5034327;28;20032;-85
2021/12/28 05:57:24;;;;;;;8.02;1.55;;;7.30;99.90;;;;;;5034078;28;20037;-86
2021/12/28 05:59:50;;;;;;;7.15;1.10;;;7.30;99.90;;;;;;5034105;28;20029;-86
2021/12/28 06:02:16;;;;;;;8.90;1.00;;;7.30;99.90;;;;;;5050498;28;20037;-86
2021/12/28 06:04:42;;;;;;;5.43;0.70;;;7.30;99.90;;;;;;5033993;28;20056;-87
2021/12/28 06:07:07;;;;;;;7.85;1.13;;;7.40;99.90;;;;;;5034154;28;20041;-86
2021/12/28 06:09:33;;;;;;;6.68;0.80;;;7.40;99.90;;;;;;5033977;28;20096;-86
2021/12/28 06:11:59;;;;;;;6.00;1.17;;;7.30;99.90;;;;;;5033757;28;20083;-86
2021/12/28 06:14:24;;;;;;;8.57;1.17;;;7.30;99.90;;;;;;5034147;28;20560;-87
2021/12/28 06:16:50;;;;;;;9.20;1.42;;;7.40;99.90;;;;;;5033884;28;20059;-86
2021/12/28 06:19:15;;;;;;;10.85;1.70;;;7.50;99.90;;;;;;5050610;28;20037;-87
2021/12/28 06:21:41;;;;;;;14.98;1.48;;;7.50;99.90;;;;;;5033918;28;20037;-86
2021/12/28 06:24:07;;;;;;;8.88;1.25;;;7.50;99.90;;;;;;5034930;28;20029;-86
2021/12/28 06:26:34;;;;;;;16.13;2.17;;;7.50;99.90;;;;;;5033836;28;20071;-86
2021/12/28 06:29:02;;;;;;;9.05;1.27;;;7.60;99.90;;;;;;5033547;28;20033;-86
2021/12/28 06:31:28;;;;;;;9.20;1.10;;;7.60;99.90;;;;;;5050153;28;20447;-85
2021/12/28 06:33:59;;;;;;;9.38;1.42;;;7.60;99.90;;;;;;5033573;28;20025;-85
2021/12/28 06:36:25;;;;;;;10.13;1.27;;;7.60;99.90;;;;;;5034027;28;20033;-87
2021/12/28 06:38:51;;;;;;;8.20;1.08;;;7.60;99.90;;;;;;5054534;28;20029;-87
2021/12/28 06:41:17;;;;;;;6.45;1.50;;;7.60;99.90;;;;;;5049951;28;20531;-86
2021/12/28 06:43:43;;;;;;;6.65;0.85;;;7.60;99.90;;;;;;5050073;28;20034;-87
2021/12/28 06:46:08;;;;;;;13.77;1.00;;;7.60;99.90;;;;;;5050082;28;20068;-86
2021/12/28 06:48:34;;;;;;;9.70;1.52;;;7.60;99.90;;;;;;5050315;28;20029;-85
2021/12/28 06:50:59;;;;;;;8.52;1.23;;;7.60;99.90;;;;;;5066544;28;20033;-87
2021/12/28 06:53:25;;;;;;;8.63;1.65;;;7.60;99.90;;;;;;5066600;28;20100;-86
2021/12/28 06:55:51;;;;;;;13.60;1.55;;;7.70;99.90;;;;;;5049833;28;20075;-85
2021/12/28 06:58:17;;;;;;;11.90;1.40;;;7.70;99.90;;;;;;5049635;28;20025;-85
2021/12/28 07:00:42;;;;;;;9.40;0.70;;;7.70;99.90;;;;;;5049502;28;20053;-85
2021/12/28 07:03:08;;;;;;;7.30;0.80;;;7.70;99.90;;;;;;5049583;28;20087;-85
2021/12/28 07:05:34;;;;;;;8.90;0.75;;;7.70;99.90;;;;;;5049601;28;20061;-85
2021/12/28 07:08:00;;;;;;;6.18;1.00;;;7.70;99.90;;;;;;5049590;28;20487;-86
2021/12/28 07:10:26;;;;;;;5.28;0.82;;;7.70;99.90;;;;;;5049825;28;20069;-86
2021/12/28 07:12:51;;;;;;;11.70;1.17;;;7.70;99.90;;;;;;5049266;28;20029;-86
2021/12/28 07:15:18;;;;;;;8.02;1.15;;;7.70;99.90;;;;;;5049587;28;20407;-86
2021/12/28 07:17:44;;;;;;;10.50;0.95;;;7.70;99.90;;;;;;5067244;28;20040;-86
2021/12/28 07:20:11;;;;;;;12.88;1.27;;;7.70;99.90;;;;;;5047109;28;20029;-85
2021/12/28 07:22:37;;;;;;;7.70;0.90;;;7.60;99.90;;;;;;5033576;28;20033;-85
2021/12/28 07:25:06;;;;;;;10.77;1.20;;;7.60;99.90;;;;;;5056909;28;20060;-86
2021/12/28 07:27:31;;;;;;;3.95;0.80;;;7.60;99.90;;;;;;5040378;28;20036;-89
2021/12/28 07:29:57;;;;;;;6.28;1.00;;;7.60;99.90;;;;;;5041241;28;20162;-90
2021/12/28 07:32:23;;;;;;;9.23;1.23;;;7.60;99.90;;;;;;5037170;28;20088;-90
2021/12/28 07:34:49;;;;;;;5.85;1.42;;;7.70;99.90;;;;;;5045277;28;20026;-88
2021/12/28 07:37:15;;;;;;;5.88;0.70;;;7.60;99.90;;;;;;5049201;28;20456;-89
2021/12/28 07:39:40;;;;;;;4.50;0.95;;;7.60;99.90;;;;;;5043115;28;20405;-90
2021/12/28 07:42:06;;;;;;;6.10;0.80;;;7.60;99.90;;;;;;5048729;28;20025;-89
2021/12/28 07:44:34;;;;;;;8.70;0.93;;;7.70;99.90;;;;;;5048825;28;20031;-90
2021/12/28 07:47:01;;;;;;;6.68;1.00;;;7.70;99.90;;;;;;5048837;28;20041;-90
2021/12/28 07:49:27;;;;;;;10.20;0.93;;;7.70;99.90;;;;;;5048772;28;20033;-89
2021/12/28 07:51:53;;;;;;;5.93;0.90;;;7.80;99.90;;;;;;5066335;28;20078;-89
2021/12/28 07:54:18;;;;;;;5.43;0.70;;;7.80;99.90;;;;;;5048642;28;20029;-89
2021/12/28 07:56:44;;;;;;;7.53;1.00;;;7.80;99.90;;;;;;5047745;28;20037;-88
2021/12/28 07:59:10;;;;;;;5.82;0.70;;;7.80;99.90;;;;;;5048164;28;20029;-88
2021/12/28 08:01:35;;;;;;;5.40;0.70;;;7.90;99.90;;;;;;5065001;28;20029;-89
2021/12/28 08:04:02;;;;;;;6.53;0.75;;;7.90;99.90;;;;;;5048479;28;20446;-89
2021/12/28 08:06:27;;;;;;;5.88;0.90;;;7.90;99.90;;;;;;5048192;28;20056;-90
2021/12/28 08:08:53;;;;;;;6.07;1.05;;;7.90;99.90;;;;;;5047815;28;20044;-89
2021/12/28 08:11:19;;;;;;;6.47;0.90;;;8.00;99.90;;;;;;5047404;28;20086;-90
2021/12/28 08:13:45;;;;;;;7.15;1.10;;;8.00;99.90;;;;;;5048275;28;20032;-89
2021/12/28 08:16:14;;;;;;;6.78;0.93;;;8.00;99.90;;;;;;5048413;28;20033;-89
2021/12/28 08:18:50;;;;;;;12.57;1.05;;;8.00;99.90;;;;;;5064968;28;20569;-90
2021/12/28 08:21:16;;;;;;;8.05;0.95;;;8.00;99.90;;;;;;5047466;28;20039;-90
2021/12/28 08:23:41;;;;;;;7.05;0.90;;;8.00;99.90;;;;;;5047906;28;20097;-90
2021/12/28 08:26:07;;;;;;;5.88;0.95;;;8.00;99.90;;;;;;5047354;28;20041;-90
2021/12/28 08:28:53;;;;;;;9.52;1.10;;;8.10;99.90;;;;;;5047692;28;20033;-89
2021/12/28 08:31:19;;;;;;;10.75;1.05;;;8.10;99.90;;;;;;4987199;28;20538;-89
2021/12/28 08:33:44;;;;;;;4.28;0.90;;;8.20;99.90;;;;;;5003781;28;20045;-88
2021/12/28 08:36:10;;;;;;;8.70;1.20;;;8.20;99.90;;;;;;5003523;28;20042;-90
2021/12/28 08:38:35;;;;;;;6.75;1.70;;;8.20;99.90;;;;;;4998704;28;20035;-90
2021/12/28 08:41:01;;;;;;;7.25;1.30;;;8.30;99.90;;;;;;4984078;28;20046;-90
2021/12/28 08:43:27;;;;;;;4.80;1.05;;;8.30;99.90;;;;;;4984154;28;20043;-90
2021/12/28 08:45:53;;;;;;;7.68;1.25;;;8.30;99.90;;;;;;4984072;28;20047;-92
2021/12/28 08:48:19;;;;;;;6.30;0.90;;;8.30;99.90;;;;;;4984220;28;20042;-89
2021/12/28 08:50:45;;;;;;;8.18;0.70;;;8.30;99.90;;;;;;4983878;28;20053;-90
2021/12/28 08:53:12;;;;;;;6.15;0.98;;;8.30;99.90;;;;;;4984231;28;20026;-89
2021/12/28 08:55:39;;;;;;;8.30;1.02;;;8.40;99.90;;;;;;4984190;28;20137;-86
2021/12/28 08:58:04;;;;;;;7.85;0.90;;;8.30;99.90;;;;;;4984099;28;20030;-87
2021/12/28 09:00:33;;;;;;;5.40;1.75;;;8.40;99.90;;;;;;4983837;28;20575;-87
2021/12/28 09:03:00;;;;;;;4.25;0.77;;;8.40;99.90;;;;;;4983740;28;20106;-88
2021/12/28 09:05:28;;;;;;;5.22;0.70;;;8.40;99.90;;;;;;4983580;28;20038;-88
2021/12/28 09:07:55;;;;;;;8.60;1.25;;;8.50;99.90;;;;;;4992346;28;20048;-88
2021/12/28 09:10:22;;;;;;;5.20;1.00;;;8.50;99.90;;;;;;5030556;28;20041;-87
2021/12/28 09:12:48;;;;;;;3.47;0.50;;;8.50;99.90;;;;;;5030672;28;20048;-87
2021/12/28 09:15:14;;;;;;;2.80;0.70;;;8.50;99.90;;;;;;5030661;28;20044;-88
2021/12/28 09:17:40;;;;;;;6.22;0.93;;;8.50;99.90;;;;;;5047219;28;20037;-87
2021/12/28 09:20:13;;;;;;;3.97;1.10;;;8.50;99.90;;;;;;5030283;28;20059;-87
2021/12/28 09:22:38;;;;;;;2.08;0.55;;;8.50;99.90;;;;;;5030206;28;20037;-87
2021/12/28 09:25:05;;;;;;;5.03;0.80;;;8.50;99.90;;;;;;5034295;28;20044;-88
2021/12/28 09:27:31;;;;;;;4.75;0.55;;;8.60;99.90;;;;;;5034487;28;20052;-87
2021/12/28 09:29:56;;;;;;;3.75;0.80;;;8.60;99.90;;;;;;5033995;28;20049;-87
2021/12/28 09:32:22;;;;;;;3.05;0.80;;;8.60;99.90;;;;;;5034305;28;20040;-88
2021/12/28 09:34:51;;;;;;;4.80;0.65;;;8.50;99.90;;;;;;5033641;28;20029;-88
2021/12/28 09:37:19;;;;;;;4.10;0.50;;;8.60;99.90;;;;;;5034419;28;20037;-89
2021/12/28 09:39:46;;;;;;;2.60;0.50;;;8.60;99.90;;;;;;5045478;28;20028;-89
2021/12/28 09:42:12;;;;;;;1.35;0.30;;;8.60;99.90;;;;;;5050419;28;20037;-89
2021/12/28 09:44:38;;;;;;;5.80;0.40;;;8.60;99.90;;;;;;5050671;28;20037;-87
2021/12/28 09:47:05;;;;;;;1.75;0.40;;;8.60;99.90;;;;;;5066939;28;20045;-88
2021/12/28 09:49:31;;;;;;;2.75;0.40;;;8.70;99.90;;;;;;5050269;28;20035;-88
2021/12/28 09:51:58;;;;;;;2.10;0.50;;;8.70;99.90;;;;;;5050160;28;20064;-88
2021/12/28 09:54:28;;;;;;;3.67;0.35;;;8.70;99.90;;;;;;5050499;28;20043;-88
2021/12/28 09:56:56;;;;;;;3.60;1.15;;;8.70;99.90;;;;;;5050288;28;20060;-89
2021/12/28 09:59:27;;;;;;;2.45;0.45;;;8.70;99.90;;;;;;5050313;28;20032;-87
2021/12/28 10:01:52;;;;;;;3.85;0.70;;;8.70;99.90;;;;;;5049836;28;20082;-88
2021/12/28 10:04:18;;;;;;;1.80;0.50;;;8.70;99.90;;;;;;5050048;28;20033;-89
2021/12/28 10:06:51;;;;;;;1.83;0.40;;;8.80;99.90;;;;;;5050087;28;20068;-88
2021/12/28 10:09:20;;;;;;;1.63;0.50;;;8.80;99.90;;;;;;5050320;28;20036;-89
2021/12/28 10:11:52;;;;;;;2.75;0.50;;;8.80;99.90;;;;;;5050039;28;20033;-90
2021/12/28 10:14:19;;;;;;;1.77;0.40;;;8.80;99.90;;;;;;5050086;28;20036;-89
2021/12/28 10:16:54;;;;;;;2.33;0.40;;;8.80;99.90;;;;;;5066564;28;20044;-88
2021/12/28 10:19:41;;;;;;;1.77;0.30;;;8.80;99.90;;;;;;5066412;28;20032;-89
2021/12/28 10:22:29;;;;;;;1.05;0.50;;;8.80;99.90;;;;;;5049523;28;20029;-86
2021/12/28 10:25:09;;;;;;;2.70;0.52;;;8.80;99.90;;;;;;5049941;28;20048;-88
2021/12/28 10:27:42;;;;;;;3.00;0.68;;;8.90;99.90;;;;;;5049696;28;20039;-89
2021/12/28 10:30:21;;;;;;;3.05;0.60;;;8.80;99.90;;;;;;5066465;28;20073;-88
2021/12/28 10:33:07;;;;;;;1.02;0.40;;;8.90;99.90;;;;;;5049494;28;20036;-89
2021/12/28 10:35:38;;;;;;;2.53;0.50;;;8.90;99.90;;;;;;5065828;28;20041;-87
2021/12/28 10:38:20;;;;;;;1.73;0.40;;;8.90;99.90;;;;;;5049721;28;20040;-89
2021/12/28 10:40:50;;;;;;;1.42;0.47;;;9.00;99.90;;;;;;5033062;28;20037;-89
2021/12/28 10:43:20;;;;;;;;;;;9.00;99.90;;;;;;5033748;28;20033;-88
2021/12/28 10:45:47;;;;;;;2.72;0.77;;;9.00;99.90;;;;;;5032855;28;19916;-88
2021/12/28 10:48:22;;;;;;;2.45;0.70;;;9.00;99.90;;;;;;5049108;28;20037;-88
2021/12/28 10:51:02;;;;;;;1.50;0.60;;;9.10;99.90;;;;;;5032726;28;20157;-89
2021/12/28 10:54:01;;;;;;;;;;;9.10;99.90;;;;;;5033151;28;20040;-86
2021/12/28 10:56:29;;;;;;;5.03;0.77;;;9.10;99.90;;;;;;5032557;28;19909;-89
2021/12/28 10:58:55;;;;;;;1.42;0.60;;;9.10;99.90;;;;;;5032173;28;20048;-89
2021/12/28 11:01:24;;;;;;;2.30;0.60;;;9.10;99.90;;;;;;5032659;28;20470;-87
2021/12/28 11:03:56;;;;;;;2.05;1.13;;;9.10;99.90;;;;;;5010021;28;20049;-88
2021/12/28 11:06:28;;;;;;;1.80;0.70;;;9.20;99.90;;;;;;5042075;28;20078;-91
2021/12/28 11:08:58;;;;;;;1.20;0.57;;;9.20;99.90;;;;;;5031348;28;20488;-88
2021/12/28 11:11:25;;;;;;;1.55;0.60;;;9.20;99.90;;;;;;5040544;28;20040;-89
2021/12/28 11:14:05;;;;;;;1.30;0.57;;;9.20;99.90;;;;;;5021443;28;20038;-89
2021/12/28 11:16:32;;;;;;;1.95;0.85;;;9.20;99.90;;;;;;5037345;28;20116;-90
2021/12/28 11:19:01;;;;;;;2.45;0.60;;;9.20;99.90;;;;;;5028453;28;20037;-90
2021/12/28 11:21:33;;;;;;;1.92;0.80;;;9.20;99.90;;;;;;5032505;28;20032;-90
2021/12/28 11:24:09;;;;;;;3.30;0.70;;;9.20;99.90;;;;;;5034199;28;20032;-91
2021/12/28 11:26:53;;;;;;;2.03;0.60;;;9.20;99.90;;;;;;5041502;28;20044;-88
2021/12/28 11:29:30;;;;;;;1.80;0.70;;;9.30;99.90;;;;;;5039554;28;20041;-88
2021/12/28 11:32:01;;;;;;;1.80;0.73;;;9.30;99.90;;;;;;5003341;28;20037;-89
2021/12/28 11:34:33;;;;;;;1.95;0.73;;;9.30;99.90;;;;;;5013646;28;20025;-89
2021/12/28 11:37:15;;;;;;;1.42;0.60;;;9.30;99.90;;;;;;5007247;28;20022;-90
2021/12/28 11:40:08;;;;;;;1.65;0.73;;;9.30;99.90;;;;;;5011232;28;20048;-90
2021/12/28 11:42:37;;;;;;;1.33;0.63;;;9.30;99.90;;;;;;5012122;28;20038;-89
2021/12/28 11:45:32;;;;;;;1.67;0.60;;;9.30;99.90;;;;;;5012679;28;20053;-89
2021/12/28 11:48:01;;;;;;;2.35;0.50;;;9.40;99.90;;;;;;5015155;28;20030;-89
2021/12/28 11:50:27;;;;;;;1.40;0.70;;;9.40;99.90;;;;;;5026856;28;20041;-89
2021/12/28 11:52:53;;;;;;;1.20;0.50;;;9.40;99.90;;;;;;5019306;28;20057;-89
2021/12/28 11:55:21;;;;;;;1.70;0.60;;;9.40;99.90;;;;;;5022764;28;20025;-90
2021/12/28 11:57:52;;;;;;;2.28;0.70;;;9.40;99.90;;;;;;5012404;28;20041;-90
2021/12/28 12:00:20;;;;;;;2.53;0.70;;;9.40;99.90;;;;;;5009012;28;20485;-90
2021/12/28 12:02:49;;;;;;;2.85;0.57;;;9.50;99.90;;;;;;5016286;28;20037;-90
2021/12/28 12:05:14;;;;;;;2.33;0.60;;;9.50;99.90;;;;;;5006030;28;20551;-90
2021/12/28 12:07:40;;;;;;;1.90;0.50;;;9.50;99.90;;;;;;5011507;28;20308;-88
2021/12/28 12:10:11;;;;;;;1.20;0.50;;;9.50;99.90;;;;;;5013852;28;20060;-89
2021/12/28 12:12:55;;;;;;;1.98;0.45;;;9.50;99.90;;;;;;5029454;28;20036;-89
2021/12/28 12:15:25;;;;;;;0.90;0.40;;;9.50;99.90;;;;;;5010483;28;20100;-90
2021/12/28 12:17:56;;;;;;;1.00;0.50;;;9.50;99.90;;;;;;5008724;28;20030;-89
2021/12/28 12:20:30;;;;;;;0.93;0.40;;;9.50;99.90;;;;;;5009339;28;20029;-89
2021/12/28 12:23:10;;;;;;;1.45;0.40;;;9.50;99.90;;;;;;5009424;28;20052;-89
2021/12/28 12:25:41;;;;;;;0.90;0.40;;;9.50;99.90;;;;;;5019765;28;20132;-89
2021/12/28 12:28:08;;;;;;;0.90;0.40;;;9.60;99.90;;;;;;5010668;28;20044;-90
2021/12/28 12:30:34;;;;;;;1.20;0.60;;;9.60;99.90;;;;;;5013433;28;20049;-88
2021/12/28 12:33:07;;;;;;;1.27;0.50;;;9.60;99.90;;;;;;5018308;28;20136;-89
2021/12/28 12:35:33;;;;;;;1.90;0.60;;;9.60;99.90;;;;;;5014700;28;20144;-90
2021/12/28 12:38:23;;;;;;;1.58;0.50;;;9.60;99.90;;;;;;5033574;28;20457;-91
2021/12/28 12:41:08;;;;;;;1.45;0.50;;;9.60;99.90;;;;;;5032907;28;20025;-89
2021/12/28 12:43:35;;;;;;;1.88;0.50;;;9.60;99.90;;;;;;5047314;28;20049;-90
2021/12/28 12:46:25;;;;;;;1.10;0.40;;;9.60;99.90;;;;;;5030834;28;20136;-91
2021/12/28 12:48:53;;;;;;;2.35;0.40;;;9.60;99.90;;;;;;5029769;28;20118;-88
2021/12/28 12:51:19;;;;;;;2.25;0.30;;;9.60;99.90;;;;;;5020212;28;20034;-90
2021/12/28 12:54:08;;;;;;;2.45;0.30;;;9.50;99.90;;;;;;5028473;28;20079;-90
2021/12/28 12:56:56;;;;;;;2.97;0.60;;;9.50;99.90;;;;;;5031018;28;20041;-91
2021/12/28 12:59:29;;;;;;;4.82;0.70;;;9.50;99.90;;;;;;5020415;28;20038;-94
2021/12/28 13:02:01;;;;;;;5.32;0.60;;;9.50;99.90;;;;;;5027414;28;20037;-88